sensor_id;sensor_type;location;lat;lon;timestamp;P1;durP1;ratioP1;P2;durP2;ratioP2
45684;SDS011;46836;48.388;16.210;2023-08-07T00:02:07;0.80;;;0.55;;
45684;SDS011;46836;48.388;16.210;2023-08-07T00:04:34;0.60;;;0.60;;
45684;SDS011;46836;48.388;16.210;2023-08-07T00:07:01;1.60;;;0.40;;
45684;SDS011;46836;48.388;16.210;2023-08-07T00:09:28;0.60;;;0.60;;
45684;SDS011;46836;48.388;16.210;2023-08-07T00:11:55;1.42;;;0.50;;
45684;SDS011;46836;48.388;16.210;2023-08-07T00:14:23;1.67;;;0.70;;
45684;SDS011;46836;48.388;16.210;2023-08-07T00:16:50;0.93;;;0.60;;
45684;SDS011;46836;48.388;16.210;2023-08-07T00:19:17;1.40;;;0.60;;
45684;SDS011;46836;48.388;16.210;2023-08-07T00:21:44;0.70;;;0.70;;
45684;SDS011;46836;48.388;16.210;2023-08-07T00:24:11;0.88;;;0.60;;
45684;SDS011;46836;48.388;16.210;2023-08-07T00:26:38;3.50;;;0.70;;
45684;SDS011;46836;48.388;16.210;2023-08-07T00:29:05;1.77;;;0.60;;
45684;SDS011;46836;48.388;16.210;2023-08-07T00:31:32;1.00;;;0.90;;
45684;SDS011;46836;48.388;16.210;2023-08-07T00:34:00;1.42;;;0.63;;
45684;SDS011;46836;48.388;16.210;2023-08-07T00:36:28;0.50;;;0.50;;
45684;SDS011;46836;48.388;16.210;2023-08-07T00:38:55;1.98;;;0.90;;
45684;SDS011;46836;48.388;16.210;2023-08-07T00:41:22;3.35;;;0.70;;
45684;SDS011;46836;48.388;16.210;2023-08-07T00:43:49;1.90;;;0.70;;
45684;SDS011;46836;48.388;16.210;2023-08-07T00:46:18;0.95;;;0.50;;
45684;SDS011;46836;48.388;16.210;2023-08-07T00:48:45;1.35;;;0.50;;
45684;SDS011;46836;48.388;16.210;2023-08-07T00:51:13;1.50;;;0.60;;
45684;SDS011;46836;48.388;16.210;2023-08-07T00:53:41;1.05;;;0.68;;
45684;SDS011;46836;48.388;16.210;2023-08-07T00:56:09;0.80;;;0.60;;
45684;SDS011;46836;48.388;16.210;2023-08-07T00:58:36;1.63;;;0.60;;
45684;SDS011;46836;48.388;16.210;2023-08-07T01:01:04;1.60;;;0.60;;
45684;SDS011;46836;48.388;16.210;2023-08-07T01:03:32;0.80;;;0.70;;
45684;SDS011;46836;48.388;16.210;2023-08-07T01:05:59;0.88;;;0.80;;
45684;SDS011;46836;48.388;16.210;2023-08-07T01:08:27;0.68;;;0.68;;
45684;SDS011;46836;48.388;16.210;2023-08-07T01:16:29;1.08;;;0.82;;
45684;SDS011;46836;48.388;16.210;2023-08-07T01:19:09;2.63;;;0.77;;
45684;SDS011;46836;48.388;16.210;2023-08-07T01:21:48;7.53;;;1.83;;
45684;SDS011;46836;48.388;16.210;2023-08-07T01:24:15;0.70;;;0.60;;
45684;SDS011;46836;48.388;16.210;2023-08-07T01:26:42;0.75;;;0.63;;
45684;SDS011;46836;48.388;16.210;2023-08-07T01:29:12;2.15;;;0.80;;
45684;SDS011;46836;48.388;16.210;2023-08-07T01:31:48;2.42;;;0.60;;
45684;SDS011;46836;48.388;16.210;2023-08-07T01:34:17;1.90;;;1.00;;
45684;SDS011;46836;48.388;16.210;2023-08-07T01:36:47;0.90;;;0.63;;
45684;SDS011;46836;48.388;16.210;2023-08-07T01:39:16;1.10;;;0.80;;
45684;SDS011;46836;48.388;16.210;2023-08-07T01:41:45;0.68;;;0.68;;
45684;SDS011;46836;48.388;16.210;2023-08-07T01:44:13;1.08;;;0.90;;
45684;SDS011;46836;48.388;16.210;2023-08-07T01:46:40;0.70;;;0.70;;
45684;SDS011;46836;48.388;16.210;2023-08-07T01:49:07;0.93;;;0.90;;
45684;SDS011;46836;48.388;16.210;2023-08-07T01:51:34;2.40;;;0.70;;
45684;SDS011;46836;48.388;16.210;2023-08-07T01:54:01;0.93;;;0.82;;
45684;SDS011;46836;48.388;16.210;2023-08-07T01:56:29;3.90;;;0.70;;
45684;SDS011;46836;48.388;16.210;2023-08-07T01:58:56;0.88;;;0.77;;
45684;SDS011;46836;48.388;16.210;2023-08-07T02:01:23;1.25;;;1.05;;
45684;SDS011;46836;48.388;16.210;2023-08-07T02:03:50;2.45;;;0.82;;
45684;SDS011;46836;48.388;16.210;2023-08-07T02:06:17;1.55;;;0.90;;
45684;SDS011;46836;48.388;16.210;2023-08-07T02:08:44;1.00;;;0.77;;
45684;SDS011;46836;48.388;16.210;2023-08-07T02:11:11;1.40;;;0.90;;
45684;SDS011;46836;48.388;16.210;2023-08-07T02:13:38;0.80;;;0.80;;
45684;SDS011;46836;48.388;16.210;2023-08-07T02:16:05;1.10;;;0.70;;
45684;SDS011;46836;48.388;16.210;2023-08-07T02:18:33;1.40;;;1.00;;
45684;SDS011;46836;48.388;16.210;2023-08-07T02:21:00;1.05;;;0.88;;
45684;SDS011;46836;48.388;16.210;2023-08-07T02:23:27;1.13;;;1.00;;
45684;SDS011;46836;48.388;16.210;2023-08-07T02:25:55;1.10;;;0.90;;
45684;SDS011;46836;48.388;16.210;2023-08-07T02:28:22;3.35;;;0.93;;
45684;SDS011;46836;48.388;16.210;2023-08-07T02:30:49;1.35;;;1.15;;
45684;SDS011;46836;48.388;16.210;2023-08-07T02:33:17;1.15;;;0.93;;
45684;SDS011;46836;48.388;16.210;2023-08-07T02:35:44;1.10;;;1.00;;
45684;SDS011;46836;48.388;16.210;2023-08-07T02:38:12;2.22;;;0.98;;
45684;SDS011;46836;48.388;16.210;2023-08-07T02:40:39;0.93;;;0.70;;
45684;SDS011;46836;48.388;16.210;2023-08-07T02:43:06;1.10;;;1.00;;
45684;SDS011;46836;48.388;16.210;2023-08-07T02:45:33;2.10;;;0.93;;
45684;SDS011;46836;48.388;16.210;2023-08-07T02:48:01;2.35;;;1.15;;
45684;SDS011;46836;48.388;16.210;2023-08-07T02:50:29;1.25;;;1.00;;
45684;SDS011;46836;48.388;16.210;2023-08-07T02:53:00;1.17;;;1.08;;
45684;SDS011;46836;48.388;16.210;2023-08-07T02:55:28;1.85;;;1.10;;
45684;SDS011;46836;48.388;16.210;2023-08-07T02:57:55;1.20;;;1.10;;
45684;SDS011;46836;48.388;16.210;2023-08-07T03:00:22;1.15;;;0.95;;
45684;SDS011;46836;48.388;16.210;2023-08-07T03:02:50;1.60;;;1.00;;
45684;SDS011;46836;48.388;16.210;2023-08-07T03:05:17;1.55;;;0.90;;
45684;SDS011;46836;48.388;16.210;2023-08-07T03:07:44;3.50;;;0.83;;
45684;SDS011;46836;48.388;16.210;2023-08-07T03:10:11;2.67;;;1.10;;
45684;SDS011;46836;48.388;16.210;2023-08-07T03:12:38;1.50;;;1.30;;
45684;SDS011;46836;48.388;16.210;2023-08-07T03:15:05;1.13;;;0.80;;
45684;SDS011;46836;48.388;16.210;2023-08-07T03:17:34;1.88;;;1.00;;
45684;SDS011;46836;48.388;16.210;2023-08-07T03:20:02;1.85;;;0.85;;
45684;SDS011;46836;48.388;16.210;2023-08-07T03:22:30;1.40;;;0.80;;
45684;SDS011;46836;48.388;16.210;2023-08-07T03:24:57;1.15;;;1.05;;
45684;SDS011;46836;48.388;16.210;2023-08-07T03:27:24;1.13;;;1.00;;
45684;SDS011;46836;48.388;16.210;2023-08-07T03:29:52;1.67;;;1.10;;
45684;SDS011;46836;48.388;16.210;2023-08-07T03:32:19;2.80;;;1.13;;
45684;SDS011;46836;48.388;16.210;2023-08-07T03:34:46;1.20;;;1.00;;
45684;SDS011;46836;48.388;16.210;2023-08-07T03:37:13;1.60;;;0.80;;
45684;SDS011;46836;48.388;16.210;2023-08-07T03:39:40;1.77;;;0.98;;
45684;SDS011;46836;48.388;16.210;2023-08-07T03:42:07;1.85;;;1.10;;
45684;SDS011;46836;48.388;16.210;2023-08-07T03:44:34;1.13;;;0.90;;
45684;SDS011;46836;48.388;16.210;2023-08-07T03:47:01;1.50;;;1.10;;
45684;SDS011;46836;48.388;16.210;2023-08-07T03:49:29;1.70;;;0.85;;
45684;SDS011;46836;48.388;16.210;2023-08-07T03:51:56;1.50;;;0.90;;
45684;SDS011;46836;48.388;16.210;2023-08-07T03:54:25;2.60;;;1.10;;
45684;SDS011;46836;48.388;16.210;2023-08-07T03:56:52;1.27;;;0.87;;
45684;SDS011;46836;48.388;16.210;2023-08-07T03:59:19;1.77;;;1.55;;
45684;SDS011;46836;48.388;16.210;2023-08-07T04:01:46;1.55;;;0.82;;
45684;SDS011;46836;48.388;16.210;2023-08-07T04:04:14;1.13;;;1.02;;
45684;SDS011;46836;48.388;16.210;2023-08-07T04:06:41;2.45;;;1.00;;
45684;SDS011;46836;48.388;16.210;2023-08-07T04:09:08;1.95;;;1.00;;
45684;SDS011;46836;48.388;16.210;2023-08-07T04:11:37;1.48;;;1.00;;
45684;SDS011;46836;48.388;16.210;2023-08-07T04:14:04;3.90;;;0.82;;
45684;SDS011;46836;48.388;16.210;2023-08-07T04:16:31;1.45;;;0.98;;
45684;SDS011;46836;48.388;16.210;2023-08-07T04:18:59;3.60;;;0.80;;
45684;SDS011;46836;48.388;16.210;2023-08-07T04:21:26;0.60;;;0.60;;
45684;SDS011;46836;48.388;16.210;2023-08-07T04:23:53;1.40;;;1.10;;
45684;SDS011;46836;48.388;16.210;2023-08-07T04:26:20;2.97;;;0.90;;
45684;SDS011;46836;48.388;16.210;2023-08-07T04:28:47;1.52;;;1.00;;
45684;SDS011;46836;48.388;16.210;2023-08-07T04:31:14;0.85;;;0.80;;
45684;SDS011;46836;48.388;16.210;2023-08-07T04:33:41;2.85;;;0.75;;
45684;SDS011;46836;48.388;16.210;2023-08-07T04:36:08;2.50;;;0.70;;
45684;SDS011;46836;48.388;16.210;2023-08-07T04:38:36;1.10;;;1.00;;
45684;SDS011;46836;48.388;16.210;2023-08-07T04:41:03;2.13;;;0.90;;
45684;SDS011;46836;48.388;16.210;2023-08-07T04:43:30;1.38;;;0.80;;
45684;SDS011;46836;48.388;16.210;2023-08-07T04:45:57;1.80;;;0.80;;
45684;SDS011;46836;48.388;16.210;2023-08-07T04:48:24;1.30;;;0.77;;
45684;SDS011;46836;48.388;16.210;2023-08-07T04:50:52;1.05;;;0.88;;
45684;SDS011;46836;48.388;16.210;2023-08-07T04:53:19;3.05;;;0.80;;
45684;SDS011;46836;48.388;16.210;2023-08-07T04:55:46;1.15;;;0.60;;
45684;SDS011;46836;48.388;16.210;2023-08-07T04:58:13;2.50;;;0.70;;
45684;SDS011;46836;48.388;16.210;2023-08-07T05:00:40;1.52;;;0.80;;
45684;SDS011;46836;48.388;16.210;2023-08-07T05:03:07;6.07;;;1.00;;
45684;SDS011;46836;48.388;16.210;2023-08-07T05:05:35;6.45;;;1.10;;
45684;SDS011;46836;48.388;16.210;2023-08-07T05:08:02;1.10;;;0.80;;
45684;SDS011;46836;48.388;16.210;2023-08-07T05:10:29;1.02;;;0.70;;
45684;SDS011;46836;48.388;16.210;2023-08-07T05:12:57;1.27;;;0.88;;
45684;SDS011;46836;48.388;16.210;2023-08-07T05:15:24;1.45;;;0.70;;
45684;SDS011;46836;48.388;16.210;2023-08-07T05:17:52;0.70;;;0.60;;
45684;SDS011;46836;48.388;16.210;2023-08-07T05:20:19;1.55;;;0.68;;
45684;SDS011;46836;48.388;16.210;2023-08-07T05:22:47;0.88;;;0.60;;
45684;SDS011;46836;48.388;16.210;2023-08-07T05:25:14;0.75;;;0.70;;
45684;SDS011;46836;48.388;16.210;2023-08-07T05:27:43;1.90;;;0.95;;
45684;SDS011;46836;48.388;16.210;2023-08-07T05:30:11;0.70;;;0.70;;
45684;SDS011;46836;48.388;16.210;2023-08-07T05:32:39;0.88;;;0.68;;
45684;SDS011;46836;48.388;16.210;2023-08-07T05:35:07;1.42;;;0.63;;
45684;SDS011;46836;48.388;16.210;2023-08-07T05:37:35;1.45;;;0.60;;
45684;SDS011;46836;48.388;16.210;2023-08-07T05:40:03;0.70;;;0.68;;
45684;SDS011;46836;48.388;16.210;2023-08-07T05:42:31;1.83;;;0.50;;
45684;SDS011;46836;48.388;16.210;2023-08-07T05:44:58;2.30;;;0.50;;
45684;SDS011;46836;48.388;16.210;2023-08-07T05:47:25;1.10;;;0.50;;
45684;SDS011;46836;48.388;16.210;2023-08-07T05:49:53;0.57;;;0.50;;
45684;SDS011;46836;48.388;16.210;2023-08-07T05:52:20;2.80;;;0.80;;
45684;SDS011;46836;48.388;16.210;2023-08-07T05:54:47;0.70;;;0.40;;
45684;SDS011;46836;48.388;16.210;2023-08-07T05:57:14;2.13;;;0.75;;
45684;SDS011;46836;48.388;16.210;2023-08-07T05:59:42;1.70;;;0.60;;
45684;SDS011;46836;48.388;16.210;2023-08-07T06:02:09;1.40;;;0.60;;
45684;SDS011;46836;48.388;16.210;2023-08-07T06:04:39;2.55;;;0.63;;
45684;SDS011;46836;48.388;16.210;2023-08-07T06:07:07;2.60;;;0.68;;
45684;SDS011;46836;48.388;16.210;2023-08-07T06:09:35;0.82;;;0.60;;
45684;SDS011;46836;48.388;16.210;2023-08-07T06:12:02;1.30;;;0.40;;
45684;SDS011;46836;48.388;16.210;2023-08-07T06:14:29;5.00;;;0.60;;
45684;SDS011;46836;48.388;16.210;2023-08-07T06:16:56;1.00;;;0.50;;
45684;SDS011;46836;48.388;16.210;2023-08-07T06:19:24;1.25;;;0.60;;
45684;SDS011;46836;48.388;16.210;2023-08-07T06:21:58;1.15;;;0.60;;
45684;SDS011;46836;48.388;16.210;2023-08-07T06:24:26;1.58;;;0.70;;
45684;SDS011;46836;48.388;16.210;2023-08-07T06:26:54;2.50;;;0.50;;
45684;SDS011;46836;48.388;16.210;2023-08-07T06:29:22;0.40;;;0.30;;
45684;SDS011;46836;48.388;16.210;2023-08-07T06:31:51;0.55;;;0.40;;
45684;SDS011;46836;48.388;16.210;2023-08-07T06:34:18;0.60;;;0.45;;
45684;SDS011;46836;48.388;16.210;2023-08-07T06:36:45;5.53;;;0.50;;
45684;SDS011;46836;48.388;16.210;2023-08-07T06:39:12;1.90;;;0.50;;
45684;SDS011;46836;48.388;16.210;2023-08-07T06:41:40;1.00;;;0.50;;
45684;SDS011;46836;48.388;16.210;2023-08-07T06:44:07;0.65;;;0.52;;
45684;SDS011;46836;48.388;16.210;2023-08-07T06:46:34;1.90;;;0.43;;
45684;SDS011;46836;48.388;16.210;2023-08-07T06:49:01;1.25;;;0.40;;
45684;SDS011;46836;48.388;16.210;2023-08-07T06:51:28;0.60;;;0.60;;
45684;SDS011;46836;48.388;16.210;2023-08-07T06:53:55;2.00;;;0.50;;
45684;SDS011;46836;48.388;16.210;2023-08-07T06:56:23;1.70;;;0.70;;
45684;SDS011;46836;48.388;16.210;2023-08-07T06:58:50;1.17;;;0.50;;
45684;SDS011;46836;48.388;16.210;2023-08-07T07:01:17;1.30;;;0.80;;
45684;SDS011;46836;48.388;16.210;2023-08-07T07:03:44;4.13;;;0.50;;
45684;SDS011;46836;48.388;16.210;2023-08-07T07:06:13;3.88;;;0.65;;
45684;SDS011;46836;48.388;16.210;2023-08-07T07:08:41;2.35;;;0.60;;
45684;SDS011;46836;48.388;16.210;2023-08-07T07:11:08;5.22;;;1.65;;
45684;SDS011;46836;48.388;16.210;2023-08-07T07:13:36;5.85;;;1.00;;
45684;SDS011;46836;48.388;16.210;2023-08-07T07:16:03;1.00;;;0.60;;
45684;SDS011;46836;48.388;16.210;2023-08-07T07:18:30;3.35;;;0.60;;
45684;SDS011;46836;48.388;16.210;2023-08-07T07:20:58;1.20;;;0.60;;
45684;SDS011;46836;48.388;16.210;2023-08-07T07:23:27;1.48;;;0.80;;
45684;SDS011;46836;48.388;16.210;2023-08-07T07:25:55;1.00;;;0.80;;
45684;SDS011;46836;48.388;16.210;2023-08-07T07:28:23;1.08;;;0.80;;
45684;SDS011;46836;48.388;16.210;2023-08-07T07:30:50;1.58;;;0.70;;
45684;SDS011;46836;48.388;16.210;2023-08-07T07:33:18;1.02;;;0.60;;
45684;SDS011;46836;48.388;16.210;2023-08-07T07:35:45;1.65;;;0.90;;
45684;SDS011;46836;48.388;16.210;2023-08-07T07:38:12;2.15;;;0.80;;
45684;SDS011;46836;48.388;16.210;2023-08-07T07:40:40;1.25;;;1.00;;
45684;SDS011;46836;48.388;16.210;2023-08-07T07:43:07;3.58;;;0.60;;
45684;SDS011;46836;48.388;16.210;2023-08-07T07:45:34;2.20;;;0.75;;
45684;SDS011;46836;48.388;16.210;2023-08-07T07:48:02;1.58;;;0.80;;
45684;SDS011;46836;48.388;16.210;2023-08-07T07:50:30;0.85;;;0.63;;
45684;SDS011;46836;48.388;16.210;2023-08-07T07:52:58;1.23;;;0.95;;
45684;SDS011;46836;48.388;16.210;2023-08-07T07:55:25;2.15;;;0.68;;
45684;SDS011;46836;48.388;16.210;2023-08-07T07:57:53;1.08;;;0.80;;
45684;SDS011;46836;48.388;16.210;2023-08-07T08:00:21;1.08;;;0.85;;
45684;SDS011;46836;48.388;16.210;2023-08-07T08:02:53;0.90;;;0.77;;
45684;SDS011;46836;48.388;16.210;2023-08-07T08:05:20;1.40;;;0.60;;
45684;SDS011;46836;48.388;16.210;2023-08-07T08:07:48;0.90;;;0.77;;
45684;SDS011;46836;48.388;16.210;2023-08-07T08:10:15;2.13;;;0.70;;
45684;SDS011;46836;48.388;16.210;2023-08-07T08:12:43;2.05;;;1.10;;
45684;SDS011;46836;48.388;16.210;2023-08-07T08:15:10;3.83;;;0.93;;
45684;SDS011;46836;48.388;16.210;2023-08-07T08:17:37;1.17;;;0.75;;
45684;SDS011;46836;48.388;16.210;2023-08-07T08:20:06;0.77;;;0.65;;
45684;SDS011;46836;48.388;16.210;2023-08-07T08:22:34;1.23;;;0.60;;
45684;SDS011;46836;48.388;16.210;2023-08-07T08:25:02;1.40;;;0.88;;
45684;SDS011;46836;48.388;16.210;2023-08-07T08:27:31;0.80;;;0.70;;
45684;SDS011;46836;48.388;16.210;2023-08-07T08:29:58;1.10;;;0.85;;
45684;SDS011;46836;48.388;16.210;2023-08-07T08:32:25;1.50;;;0.80;;
45684;SDS011;46836;48.388;16.210;2023-08-07T08:34:53;2.03;;;0.98;;
45684;SDS011;46836;48.388;16.210;2023-08-07T08:37:20;1.92;;;1.00;;
45684;SDS011;46836;48.388;16.210;2023-08-07T08:39:48;1.30;;;1.20;;
45684;SDS011;46836;48.388;16.210;2023-08-07T08:42:16;0.90;;;0.80;;
45684;SDS011;46836;48.388;16.210;2023-08-07T08:44:46;1.67;;;0.90;;
45684;SDS011;46836;48.388;16.210;2023-08-07T08:47:18;6.72;;;1.15;;
45684;SDS011;46836;48.388;16.210;2023-08-07T08:49:47;1.05;;;0.90;;
45684;SDS011;46836;48.388;16.210;2023-08-07T08:52:21;4.35;;;0.93;;
45684;SDS011;46836;48.388;16.210;2023-08-07T08:54:48;0.70;;;0.70;;
45684;SDS011;46836;48.388;16.210;2023-08-07T08:57:16;1.27;;;0.90;;
45684;SDS011;46836;48.388;16.210;2023-08-07T08:59:44;1.08;;;0.98;;
45684;SDS011;46836;48.388;16.210;2023-08-07T09:02:11;9.05;;;1.50;;
45684;SDS011;46836;48.388;16.210;2023-08-07T09:04:39;4.07;;;1.40;;
45684;SDS011;46836;48.388;16.210;2023-08-07T09:07:09;1.38;;;1.00;;
45684;SDS011;46836;48.388;16.210;2023-08-07T09:09:37;1.20;;;0.70;;
45684;SDS011;46836;48.388;16.210;2023-08-07T09:12:05;1.02;;;0.93;;
45684;SDS011;46836;48.388;16.210;2023-08-07T09:14:34;1.30;;;1.10;;
45684;SDS011;46836;48.388;16.210;2023-08-07T09:17:06;2.00;;;1.05;;
45684;SDS011;46836;48.388;16.210;2023-08-07T09:19:33;1.98;;;1.00;;
45684;SDS011;46836;48.388;16.210;2023-08-07T09:22:00;2.03;;;1.05;;
45684;SDS011;46836;48.388;16.210;2023-08-07T09:24:27;1.05;;;0.73;;
45684;SDS011;46836;48.388;16.210;2023-08-07T09:26:55;3.78;;;1.20;;
45684;SDS011;46836;48.388;16.210;2023-08-07T09:29:22;4.20;;;1.73;;
45684;SDS011;46836;48.388;16.210;2023-08-07T09:31:50;0.82;;;0.70;;
45684;SDS011;46836;48.388;16.210;2023-08-07T09:34:19;10.10;;;2.55;;
45684;SDS011;46836;48.388;16.210;2023-08-07T09:36:47;6.88;;;2.40;;
45684;SDS011;46836;48.388;16.210;2023-08-07T09:39:14;3.30;;;1.42;;
45684;SDS011;46836;48.388;16.210;2023-08-07T09:41:41;2.35;;;1.10;;
45684;SDS011;46836;48.388;16.210;2023-08-07T09:44:09;1.20;;;1.00;;
45684;SDS011;46836;48.388;16.210;2023-08-07T09:46:41;4.80;;;1.10;;
45684;SDS011;46836;48.388;16.210;2023-08-07T09:49:09;2.88;;;1.33;;
45684;SDS011;46836;48.388;16.210;2023-08-07T09:51:43;10.30;;;3.22;;
45684;SDS011;46836;48.388;16.210;2023-08-07T09:54:11;3.38;;;1.95;;
45684;SDS011;46836;48.388;16.210;2023-08-07T09:56:43;1.40;;;1.27;;
45684;SDS011;46836;48.388;16.210;2023-08-07T09:59:14;7.43;;;3.22;;
45684;SDS011;46836;48.388;16.210;2023-08-07T10:01:41;2.00;;;1.58;;
45684;SDS011;46836;48.388;16.210;2023-08-07T10:04:10;10.68;;;3.80;;
45684;SDS011;46836;48.388;16.210;2023-08-07T10:06:43;1.50;;;1.30;;
45684;SDS011;46836;48.388;16.210;2023-08-07T10:09:12;5.30;;;2.55;;
45684;SDS011;46836;48.388;16.210;2023-08-07T10:11:40;4.07;;;1.65;;
45684;SDS011;46836;48.388;16.210;2023-08-07T10:14:08;2.42;;;1.20;;
45684;SDS011;46836;48.388;16.210;2023-08-07T10:16:36;7.05;;;2.20;;
45684;SDS011;46836;48.388;16.210;2023-08-07T10:19:06;2.47;;;1.25;;
45684;SDS011;46836;48.388;16.210;2023-08-07T10:21:38;3.53;;;1.90;;
45684;SDS011;46836;48.388;16.210;2023-08-07T10:24:07;1.40;;;1.00;;
45684;SDS011;46836;48.388;16.210;2023-08-07T10:26:37;3.80;;;1.50;;
45684;SDS011;46836;48.388;16.210;2023-08-07T10:29:10;2.50;;;1.13;;
45684;SDS011;46836;48.388;16.210;2023-08-07T10:31:44;1.38;;;1.15;;
45684;SDS011;46836;48.388;16.210;2023-08-07T10:34:12;1.30;;;0.88;;
45684;SDS011;46836;48.388;16.210;2023-08-07T10:36:40;1.73;;;1.05;;
45684;SDS011;46836;48.388;16.210;2023-08-07T10:39:08;0.93;;;0.88;;
45684;SDS011;46836;48.388;16.210;2023-08-07T10:41:40;1.42;;;1.20;;
45684;SDS011;46836;48.388;16.210;2023-08-07T10:46:53;2.22;;;1.25;;
45684;SDS011;46836;48.388;16.210;2023-08-07T10:52:03;2.08;;;1.25;;
45684;SDS011;46836;48.388;16.210;2023-08-07T10:54:30;1.75;;;1.20;;
45684;SDS011;46836;48.388;16.210;2023-08-07T10:57:11;1.90;;;1.45;;
45684;SDS011;46836;48.388;16.210;2023-08-07T11:00:03;3.10;;;1.52;;
45684;SDS011;46836;48.388;16.210;2023-08-07T11:02:36;1.23;;;1.00;;
45684;SDS011;46836;48.388;16.210;2023-08-07T11:05:07;3.78;;;1.35;;
45684;SDS011;46836;48.388;16.210;2023-08-07T11:07:34;3.60;;;1.77;;
45684;SDS011;46836;48.388;16.210;2023-08-07T11:10:08;1.50;;;1.40;;
45684;SDS011;46836;48.388;16.210;2023-08-07T11:12:39;2.88;;;1.40;;
45684;SDS011;46836;48.388;16.210;2023-08-07T11:15:06;1.63;;;1.52;;
45684;SDS011;46836;48.388;16.210;2023-08-07T11:17:38;1.35;;;1.17;;
45684;SDS011;46836;48.388;16.210;2023-08-07T11:20:08;2.38;;;1.27;;
45684;SDS011;46836;48.388;16.210;2023-08-07T11:22:37;1.42;;;1.33;;
45684;SDS011;46836;48.388;16.210;2023-08-07T11:25:05;1.55;;;1.27;;
45684;SDS011;46836;48.388;16.210;2023-08-07T11:27:36;2.10;;;1.20;;
45684;SDS011;46836;48.388;16.210;2023-08-07T11:30:03;1.30;;;1.20;;
45684;SDS011;46836;48.388;16.210;2023-08-07T11:32:31;1.30;;;1.20;;
45684;SDS011;46836;48.388;16.210;2023-08-07T11:34:59;2.42;;;1.38;;
45684;SDS011;46836;48.388;16.210;2023-08-07T11:37:26;1.50;;;1.40;;
45684;SDS011;46836;48.388;16.210;2023-08-07T11:39:58;2.10;;;1.40;;
45684;SDS011;46836;48.388;16.210;2023-08-07T11:42:28;1.90;;;1.13;;
45684;SDS011;46836;48.388;16.210;2023-08-07T11:44:55;1.52;;;1.20;;
45684;SDS011;46836;48.388;16.210;2023-08-07T11:47:23;2.55;;;1.40;;
45684;SDS011;46836;48.388;16.210;2023-08-07T11:49:51;1.30;;;1.05;;
45684;SDS011;46836;48.388;16.210;2023-08-07T11:52:19;1.50;;;1.40;;
45684;SDS011;46836;48.388;16.210;2023-08-07T11:54:46;6.75;;;2.78;;
45684;SDS011;46836;48.388;16.210;2023-08-07T11:57:16;2.38;;;1.63;;
45684;SDS011;46836;48.388;16.210;2023-08-07T11:59:47;3.28;;;2.13;;
45684;SDS011;46836;48.388;16.210;2023-08-07T12:02:15;2.92;;;1.90;;
45684;SDS011;46836;48.388;16.210;2023-08-07T12:04:43;2.70;;;1.90;;
45684;SDS011;46836;48.388;16.210;2023-08-07T12:07:10;1.70;;;1.55;;
45684;SDS011;46836;48.388;16.210;2023-08-07T12:09:37;2.47;;;1.85;;
45684;SDS011;46836;48.388;16.210;2023-08-07T12:12:05;1.52;;;1.30;;
45684;SDS011;46836;48.388;16.210;2023-08-07T12:14:33;2.80;;;1.80;;
45684;SDS011;46836;48.388;16.210;2023-08-07T12:17:02;1.50;;;1.38;;
45684;SDS011;46836;48.388;16.210;2023-08-07T12:19:39;3.33;;;1.98;;
45684;SDS011;46836;48.388;16.210;2023-08-07T12:22:10;3.97;;;2.20;;
45684;SDS011;46836;48.388;16.210;2023-08-07T12:24:38;3.92;;;2.25;;
45684;SDS011;46836;48.388;16.210;2023-08-07T12:27:07;2.70;;;1.73;;
45684;SDS011;46836;48.388;16.210;2023-08-07T12:29:34;1.60;;;1.50;;
45684;SDS011;46836;48.388;16.210;2023-08-07T12:32:01;2.10;;;1.48;;
45684;SDS011;46836;48.388;16.210;2023-08-07T12:34:29;1.70;;;1.57;;
45684;SDS011;46836;48.388;16.210;2023-08-07T12:36:59;2.10;;;1.60;;
45684;SDS011;46836;48.388;16.210;2023-08-07T12:39:26;3.57;;;1.70;;
45684;SDS011;46836;48.388;16.210;2023-08-07T12:41:56;2.93;;;2.00;;
45684;SDS011;46836;48.388;16.210;2023-08-07T12:44:27;2.23;;;1.47;;
45684;SDS011;46836;48.388;16.210;2023-08-07T12:46:54;2.10;;;1.53;;
45684;SDS011;46836;48.388;16.210;2023-08-07T12:49:23;1.42;;;1.30;;
45684;SDS011;46836;48.388;16.210;2023-08-07T12:51:50;2.47;;;1.60;;
45684;SDS011;46836;48.388;16.210;2023-08-07T12:54:18;3.00;;;1.77;;
45684;SDS011;46836;48.388;16.210;2023-08-07T12:56:45;1.50;;;1.40;;
45684;SDS011;46836;48.388;16.210;2023-08-07T12:59:12;1.73;;;1.57;;
45684;SDS011;46836;48.388;16.210;2023-08-07T13:01:39;1.50;;;1.40;;
45684;SDS011;46836;48.388;16.210;2023-08-07T13:04:06;4.47;;;2.10;;
45684;SDS011;46836;48.388;16.210;2023-08-07T13:06:35;4.73;;;1.73;;
45684;SDS011;46836;48.388;16.210;2023-08-07T13:09:02;2.20;;;1.67;;
45684;SDS011;46836;48.388;16.210;2023-08-07T13:11:29;1.90;;;1.73;;
45684;SDS011;46836;48.388;16.210;2023-08-07T13:13:56;2.33;;;1.57;;
45684;SDS011;46836;48.388;16.210;2023-08-07T13:16:24;2.70;;;1.73;;
45684;SDS011;46836;48.388;16.210;2023-08-07T13:18:51;1.57;;;1.40;;
45684;SDS011;46836;48.388;16.210;2023-08-07T13:21:18;2.63;;;1.50;;
45684;SDS011;46836;48.388;16.210;2023-08-07T13:23:45;2.57;;;1.47;;
45684;SDS011;46836;48.388;16.210;2023-08-07T13:26:12;2.20;;;1.43;;
45684;SDS011;46836;48.388;16.210;2023-08-07T13:28:39;3.50;;;1.40;;
45684;SDS011;46836;48.388;16.210;2023-08-07T13:31:06;2.20;;;1.73;;
45684;SDS011;46836;48.388;16.210;2023-08-07T13:33:33;1.60;;;1.03;;
45684;SDS011;46836;48.388;16.210;2023-08-07T13:36:00;1.43;;;1.20;;
45684;SDS011;46836;48.388;16.210;2023-08-07T13:38:28;1.37;;;1.27;;
45684;SDS011;46836;48.388;16.210;2023-08-07T13:40:55;2.80;;;1.83;;
45684;SDS011;46836;48.388;16.210;2023-08-07T13:43:22;1.50;;;1.30;;
45684;SDS011;46836;48.388;16.210;2023-08-07T13:45:49;1.67;;;1.47;;
45684;SDS011;46836;48.388;16.210;2023-08-07T13:48:17;1.40;;;1.30;;
45684;SDS011;46836;48.388;16.210;2023-08-07T13:50:45;2.10;;;1.37;;
45684;SDS011;46836;48.388;16.210;2023-08-07T13:53:13;2.53;;;1.60;;
45684;SDS011;46836;48.388;16.210;2023-08-07T13:55:42;2.20;;;1.77;;
45684;SDS011;46836;48.388;16.210;2023-08-07T13:58:10;4.83;;;1.70;;
45684;SDS011;46836;48.388;16.210;2023-08-07T14:00:39;2.40;;;1.40;;
45684;SDS011;46836;48.388;16.210;2023-08-07T14:03:10;2.63;;;1.70;;
45684;SDS011;46836;48.388;16.210;2023-08-07T14:05:39;2.70;;;1.27;;
45684;SDS011;46836;48.388;16.210;2023-08-07T14:08:07;1.50;;;1.20;;
45684;SDS011;46836;48.388;16.210;2023-08-07T14:10:56;3.43;;;1.87;;
45684;SDS011;46836;48.388;16.210;2023-08-07T14:13:24;3.10;;;1.27;;
45684;SDS011;46836;48.388;16.210;2023-08-07T14:15:51;2.40;;;1.50;;
45684;SDS011;46836;48.388;16.210;2023-08-07T14:18:19;2.20;;;1.13;;
45684;SDS011;46836;48.388;16.210;2023-08-07T14:20:46;2.10;;;1.60;;
45684;SDS011;46836;48.388;16.210;2023-08-07T14:23:27;1.40;;;0.93;;
45684;SDS011;46836;48.388;16.210;2023-08-07T14:25:58;1.03;;;0.97;;
45684;SDS011;46836;48.388;16.210;2023-08-07T14:28:26;1.53;;;1.40;;
45684;SDS011;46836;48.388;16.210;2023-08-07T14:30:58;2.23;;;1.20;;
45684;SDS011;46836;48.388;16.210;2023-08-07T14:33:28;0.97;;;0.80;;
45684;SDS011;46836;48.388;16.210;2023-08-07T14:35:56;4.63;;;1.90;;
45684;SDS011;46836;48.388;16.210;2023-08-07T14:38:23;5.57;;;1.67;;
45684;SDS011;46836;48.388;16.210;2023-08-07T14:40:50;2.10;;;1.33;;
45684;SDS011;46836;48.388;16.210;2023-08-07T14:43:17;1.47;;;1.20;;
45684;SDS011;46836;48.388;16.210;2023-08-07T14:45:45;0.93;;;0.93;;
45684;SDS011;46836;48.388;16.210;2023-08-07T14:48:13;2.07;;;1.37;;
45684;SDS011;46836;48.388;16.210;2023-08-07T14:50:41;2.70;;;1.27;;